Time;durP1;ratioP1;P1;durP2;ratioP2;P2;SDS_P1;SDS_P2;PMS_P1;PMS_P2;Temp;Humidity;BMP_temperature;BMP_pressure;BME280_temperature;BME280_humidity;BME280_pressure;Samples;Min_cycle;Max_cycle;Signal;HPM_P1;HPM_P2
2024/03/28 00:01:07;;;;;;;2.45;1.77;;;;;;;;;;4996084;28;20093;-71
2024/03/28 00:03:33;;;;;;;2.28;2.08;;;;;;;;;;4997960;28;20023;-72
2024/03/28 00:05:59;;;;;;;4.22;2.03;;;;;;;;;;4999387;28;20030;-72
2024/03/28 00:08:26;;;;;;;4.00;1.92;;;;;;;;;;4998146;28;20025;-73
2024/03/28 00:10:53;;;;;;;2.90;1.80;;;;;;;;;;4995452;28;20038;-73
2024/03/28 00:13:19;;;;;;;3.00;2.17;;;;;;;;;;4995756;28;20026;-72
2024/03/28 00:15:45;;;;;;;3.70;1.73;;;;;;;;;;4994966;28;20037;-72
2024/03/28 00:18:11;;;;;;;4.18;2.05;;;;;;;;;;4994344;28;20162;-71
2024/03/28 00:20:37;;;;;;;2.97;2.45;;;;;;;;;;4994079;28;20030;-72
2024/03/28 00:23:04;;;;;;;5.57;2.28;;;;;;;;;;4992617;28;20545;-72
2024/03/28 00:25:30;;;;;;;3.38;2.67;;;;;;;;;;4996920;28;20061;-71
2024/03/28 00:28:01;;;;;;;2.40;2.20;;;;;;;;;;4995161;28;20050;-72
2024/03/28 00:30:27;;;;;;;2.80;2.28;;;;;;;;;;4994832;28;20019;-72
2024/03/28 00:32:53;;;;;;;4.13;2.50;;;;;;;;;;4993805;28;20022;-72
2024/03/28 00:35:19;;;;;;;3.80;2.72;;;;;;;;;;4993796;28;20046;-71
2024/03/28 00:37:45;;;;;;;4.15;2.80;;;;;;;;;;4993003;28;20108;-71
2024/03/28 00:40:12;;;;;;;3.10;2.22;;;;;;;;;;4994559;28;20038;-71
2024/03/28 00:42:38;;;;;;;4.40;2.40;;;;;;;;;;4993361;28;20462;-70
2024/03/28 00:45:05;;;;;;;3.35;2.63;;;;;;;;;;4994064;28;20062;-71
2024/03/28 00:47:31;;;;;;;5.25;3.22;;;;;;;;;;4993305;28;20029;-71
2024/03/28 00:49:57;;;;;;;4.60;2.33;;;;;;;;;;4994754;28;20403;-72
2024/03/28 00:52:24;;;;;;;4.55;2.70;;;;;;;;;;4977572;28;20049;-72
2024/03/28 00:54:50;;;;;;;4.25;2.58;;;;;;;;;;4995225;28;20022;-72
2024/03/28 00:57:16;;;;;;;3.88;2.88;;;;;;;;;;4995101;28;20045;-72
2024/03/28 00:59:42;;;;;;;10.20;3.00;;;;;;;;;;4993413;28;20030;-72
2024/03/28 01:02:08;;;;;;;3.83;2.78;;;;;;;;;;4993861;28;20500;-71
2024/03/28 01:04:34;;;;;;;3.70;2.70;;;;;;;;;;4996096;28;20489;-72
2024/03/28 01:07:00;;;;;;;3.40;2.70;;;;;;;;;;4996128;28;20595;-71
2024/03/28 01:09:26;;;;;;;6.78;4.40;;;;;;;;;;4996023;28;20480;-73
2024/03/28 01:11:53;;;;;;;4.72;3.30;;;;;;;;;;4997296;28;20049;-72
2024/03/28 01:14:19;;;;;;;4.00;3.25;;;;;;;;;;4998742;28;20469;-70
2024/03/28 01:16:45;;;;;;;5.03;3.50;;;;;;;;;;4998298;28;20418;-72
2024/03/28 01:19:11;;;;;;;8.75;3.53;;;;;;;;;;4998497;28;20527;-72
2024/03/28 01:21:37;;;;;;;5.05;3.92;;;;;;;;;;5000407;28;20023;-71
2024/03/28 01:24:03;;;;;;;4.30;3.30;;;;;;;;;;5001171;28;20570;-72
2024/03/28 01:26:29;;;;;;;5.38;4.32;;;;;;;;;;5001733;28;20023;-71
2024/03/28 01:28:55;;;;;;;5.80;3.95;;;;;;;;;;4999501;28;20049;-71
2024/03/28 01:31:21;;;;;;;4.40;4.00;;;;;;;;;;5000060;28;20470;-71
2024/03/28 01:33:47;;;;;;;5.13;4.50;;;;;;;;;;4999369;28;20033;-72
2024/03/28 01:36:13;;;;;;;4.60;3.78;;;;;;;;;;4997901;28;20030;-71
2024/03/28 01:38:39;;;;;;;5.10;4.15;;;;;;;;;;4998867;28;20426;-72
2024/03/28 01:41:05;;;;;;;7.70;5.00;;;;;;;;;;4997525;28;20476;-72
2024/03/28 01:43:31;;;;;;;4.80;4.30;;;;;;;;;;4996458;28;20030;-71
2024/03/28 01:45:57;;;;;;;5.35;4.60;;;;;;;;;;4998591;28;20393;-71
2024/03/28 01:48:23;;;;;;;6.53;5.07;;;;;;;;;;4996395;28;20026;-72
2024/03/28 01:50:49;;;;;;;5.75;5.10;;;;;;;;;;4995792;28;20026;-71
2024/03/28 01:53:15;;;;;;;5.18;4.32;;;;;;;;;;4997200;28;20053;-71
2024/03/28 01:55:42;;;;;;;5.53;4.60;;;;;;;;;;4997704;28;20081;-72
2024/03/28 01:58:09;;;;;;;5.05;4.45;;;;;;;;;;4997878;28;20022;-71
2024/03/28 02:00:35;;;;;;;7.18;5.50;;;;;;;;;;4997673;28;20030;-72
2024/03/28 02:03:01;;;;;;;4.80;4.30;;;;;;;;;;4995784;28;20104;-71
2024/03/28 02:05:28;;;;;;;7.75;5.55;;;;;;;;;;4996989;28;20166;-72
2024/03/28 02:07:54;;;;;;;7.82;5.70;;;;;;;;;;4996770;28;20377;-72
2024/03/28 02:10:21;;;;;;;6.50;5.78;;;;;;;;;;4996793;28;20026;-70
2024/03/28 02:12:47;;;;;;;12.30;5.60;;;;;;;;;;4995782;28;20567;-72
2024/03/28 02:15:13;;;;;;;7.43;5.90;;;;;;;;;;4996927;28;20022;-71
2024/03/28 02:17:49;;;;;;;7.93;5.97;;;;;;;;;;4995809;28;20109;-71
2024/03/28 02:20:16;;;;;;;6.70;5.53;;;;;;;;;;4996900;28;20106;-70
2024/03/28 02:22:42;;;;;;;7.60;6.03;;;;;;;;;;4996292;28;20380;-70
2024/03/28 02:25:09;;;;;;;7.68;5.50;;;;;;;;;;4996788;28;20026;-71
2024/03/28 02:27:36;;;;;;;7.80;5.10;;;;;;;;;;4995754;28;20343;-72
2024/03/28 02:30:07;;;;;;;6.40;5.60;;;;;;;;;;4997486;28;20392;-72
2024/03/28 02:32:33;;;;;;;7.10;5.55;;;;;;;;;;4997391;28;20065;-71
2024/03/28 02:34:59;;;;;;;10.32;5.72;;;;;;;;;;4999934;28;20397;-71
2024/03/28 02:37:25;;;;;;;9.00;5.82;;;;;;;;;;4998115;28;20031;-71
2024/03/28 02:39:51;;;;;;;6.85;5.20;;;;;;;;;;5001470;28;20058;-71
2024/03/28 02:42:17;;;;;;;8.30;5.43;;;;;;;;;;4995848;28;20030;-71
2024/03/28 02:44:43;;;;;;;9.55;5.63;;;;;;;;;;4995379;28;20037;-70
2024/03/28 02:47:09;;;;;;;7.80;5.95;;;;;;;;;;5001355;28;20037;-72
2024/03/28 02:49:35;;;;;;;9.85;5.95;;;;;;;;;;4997289;28;20033;-71
2024/03/28 02:52:01;;;;;;;9.23;6.13;;;;;;;;;;4996115;28;20031;-71
2024/03/28 02:54:27;;;;;;;8.10;5.20;;;;;;;;;;4994916;28;20022;-70
2024/03/28 02:56:56;;;;;;;8.60;6.20;;;;;;;;;;4994915;28;20027;-71
2024/03/28 02:59:22;;;;;;;7.53;6.15;;;;;;;;;;4995321;28;20460;-71
2024/03/28 03:01:48;;;;;;;7.57;4.97;;;;;;;;;;4994311;28;20034;-72
2024/03/28 03:04:14;;;;;;;6.28;5.03;;;;;;;;;;4995731;28;20034;-71
2024/03/28 03:06:40;;;;;;;7.07;5.90;;;;;;;;;;4995267;28;20023;-72
2024/03/28 03:09:06;;;;;;;7.85;5.30;;;;;;;;;;4995448;28;20018;-70
2024/03/28 03:11:32;;;;;;;7.28;5.32;;;;;;;;;;4994987;28;20026;-73
2024/03/28 03:13:59;;;;;;;8.13;6.00;;;;;;;;;;4994510;28;20049;-72
2024/03/28 03:16:25;;;;;;;7.20;5.47;;;;;;;;;;4996112;28;20034;-71
2024/03/28 03:18:51;;;;;;;6.45;5.47;;;;;;;;;;4994836;28;20029;-71
2024/03/28 03:21:17;;;;;;;6.95;5.30;;;;;;;;;;4995824;28;20026;-70
2024/03/28 03:23:49;;;;;;;7.10;5.47;;;;;;;;;;4996578;28;20058;-71
2024/03/28 03:26:24;;;;;;;6.82;5.40;;;;;;;;;;4998171;28;20097;-72
2024/03/28 03:34:35;;;;;;;5.28;4.68;;;;;;;;;;4999619;28;20103;-71
2024/03/28 03:37:20;;;;;;;5.03;4.53;;;;;;;;;;4997106;28;20026;-72
2024/03/28 03:39:46;;;;;;;7.60;5.10;;;;;;;;;;4996318;28;20269;-73
2024/03/28 03:42:14;;;;;;;5.18;4.68;;;;;;;;;;4995630;28;20057;-72
2024/03/28 03:44:40;;;;;;;7.60;4.70;;;;;;;;;;4994346;28;20035;-72
2024/03/28 03:47:12;;;;;;;6.57;4.93;;;;;;;;;;4995819;28;20029;-71
2024/03/28 03:49:44;;;;;;;4.95;4.10;;;;;;;;;;4997137;28;20102;-71
2024/03/28 03:52:11;;;;;;;5.28;4.38;;;;;;;;;;4996126;28;20018;-72
2024/03/28 03:54:37;;;;;;;5.22;3.85;;;;;;;;;;4995622;28;20469;-71
2024/03/28 03:57:03;;;;;;;5.95;4.72;;;;;;;;;;4996437;28;20026;-72
2024/03/28 03:59:30;;;;;;;9.95;5.60;;;;;;;;;;4995168;28;20038;-71
2024/03/28 04:01:56;;;;;;;7.95;4.72;;;;;;;;;;4995410;28;20033;-72
2024/03/28 04:04:22;;;;;;;7.28;4.47;;;;;;;;;;4994803;28;20026;-72
2024/03/28 04:06:48;;;;;;;8.63;5.15;;;;;;;;;;4994938;28;20034;-71
2024/03/28 04:09:14;;;;;;;5.95;4.90;;;;;;;;;;4994874;28;20405;-70
2024/03/28 04:11:40;;;;;;;5.60;4.55;;;;;;;;;;4993505;28;20037;-71
2024/03/28 04:14:06;;;;;;;6.65;5.30;;;;;;;;;;4995002;28;20022;-72
2024/03/28 04:16:32;;;;;;;5.32;3.95;;;;;;;;;;5000480;28;20042;-71
2024/03/28 04:18:58;;;;;;;5.95;3.90;;;;;;;;;;4999742;28;20030;-72
2024/03/28 04:21:24;;;;;;;6.35;4.80;;;;;;;;;;5000694;28;20493;-72
2024/03/28 04:23:50;;;;;;;6.78;5.00;;;;;;;;;;4999454;28;20033;-72
2024/03/28 04:26:16;;;;;;;5.57;4.68;;;;;;;;;;4999066;28;20113;-73
2024/03/28 04:28:42;;;;;;;4.82;4.32;;;;;;;;;;4998358;28;20033;-71
2024/03/28 04:31:08;;;;;;;9.85;5.57;;;;;;;;;;4997961;28;20065;-72
2024/03/28 04:33:34;;;;;;;6.18;4.53;;;;;;;;;;4999294;28;20030;-71
2024/03/28 04:36:00;;;;;;;5.80;4.47;;;;;;;;;;4998003;28;20026;-71
2024/03/28 04:38:26;;;;;;;6.80;4.25;;;;;;;;;;5000471;28;20385;-71
2024/03/28 04:40:52;;;;;;;6.28;4.82;;;;;;;;;;4998100;28;20030;-71
2024/03/28 04:43:18;;;;;;;7.68;4.68;;;;;;;;;;4997058;28;20042;-71
2024/03/28 04:45:44;;;;;;;10.13;4.28;;;;;;;;;;4994895;28;20030;-72
2024/03/28 04:48:10;;;;;;;6.55;4.95;;;;;;;;;;4995421;28;20385;-71
2024/03/28 04:50:36;;;;;;;10.80;5.07;;;;;;;;;;4993848;28;20026;-72
2024/03/28 04:53:02;;;;;;;5.68;4.22;;;;;;;;;;4995354;28;20027;-72
2024/03/28 04:55:28;;;;;;;6.30;5.03;;;;;;;;;;4997818;28;20030;-72
2024/03/28 04:57:54;;;;;;;6.13;4.93;;;;;;;;;;5001647;28;20030;-71
2024/03/28 05:00:20;;;;;;;7.50;4.78;;;;;;;;;;5002128;28;20052;-73
2024/03/28 05:02:46;;;;;;;6.72;4.65;;;;;;;;;;4998205;28;20084;-72
2024/03/28 05:05:13;;;;;;;6.82;4.75;;;;;;;;;;4996972;28;20034;-71
2024/03/28 05:07:40;;;;;;;9.73;4.90;;;;;;;;;;4997636;28;20027;-72
2024/03/28 05:10:07;;;;;;;7.63;4.88;;;;;;;;;;4999600;28;20026;-72
2024/03/28 05:12:33;;;;;;;6.45;5.47;;;;;;;;;;4998412;28;20027;-71
2024/03/28 05:15:01;;;;;;;6.60;4.97;;;;;;;;;;5002690;28;20018;-71
2024/03/28 05:17:27;;;;;;;5.43;4.55;;;;;;;;;;5001387;28;20037;-72
2024/03/28 05:19:53;;;;;;;8.20;4.50;;;;;;;;;;5000607;28;20140;-71
2024/03/28 05:22:19;;;;;;;8.13;5.40;;;;;;;;;;4998933;28;20499;-72
2024/03/28 05:24:45;;;;;;;7.07;5.20;;;;;;;;;;5000501;28;20026;-72
2024/03/28 05:27:12;;;;;;;6.38;4.82;;;;;;;;;;5004500;28;20030;-72
2024/03/28 05:29:38;;;;;;;6.22;4.88;;;;;;;;;;4999268;28;20138;-73
2024/03/28 05:32:04;;;;;;;6.50;4.88;;;;;;;;;;4998524;28;20033;-72
2024/03/28 05:34:30;;;;;;;5.32;4.55;;;;;;;;;;4997676;28;20062;-71
2024/03/28 05:36:56;;;;;;;9.50;5.10;;;;;;;;;;4997232;28;20057;-72
2024/03/28 05:39:22;;;;;;;8.05;4.80;;;;;;;;;;4997042;28;20451;-72
2024/03/28 05:41:48;;;;;;;9.95;5.55;;;;;;;;;;4997986;28;20026;-70
2024/03/28 05:44:14;;;;;;;14.68;6.55;;;;;;;;;;4997227;28;20032;-72
2024/03/28 05:46:40;;;;;;;6.00;5.32;;;;;;;;;;4997409;28;20023;-72
2024/03/28 05:49:07;;;;;;;7.28;5.70;;;;;;;;;;4998859;28;20022;-71
2024/03/28 05:51:33;;;;;;;6.13;5.20;;;;;;;;;;4998370;28;20026;-72
2024/03/28 05:53:59;;;;;;;8.75;5.10;;;;;;;;;;4999161;28;20022;-72
2024/03/28 05:56:25;;;;;;;5.47;3.88;;;;;;;;;;4999056;28;20038;-72
2024/03/28 05:58:51;;;;;;;5.90;3.63;;;;;;;;;;5000223;28;20042;-72
2024/03/28 06:01:18;;;;;;;5.18;3.47;;;;;;;;;;4998867;28;20081;-73
2024/03/28 06:03:44;;;;;;;7.90;4.80;;;;;;;;;;4998144;28;20346;-71
2024/03/28 06:06:10;;;;;;;7.97;4.45;;;;;;;;;;4997335;28;20030;-71
2024/03/28 06:08:37;;;;;;;8.93;3.72;;;;;;;;;;4998832;28;20493;-71
2024/03/28 06:11:04;;;;;;;4.47;3.70;;;;;;;;;;4999752;28;20030;-73
2024/03/28 06:13:33;;;;;;;5.18;2.78;;;;;;;;;;4999191;28;20169;-73
2024/03/28 06:15:59;;;;;;;6.55;3.03;;;;;;;;;;4998039;28;20022;-71
2024/03/28 06:18:25;;;;;;;5.95;2.55;;;;;;;;;;4997166;28;20370;-71
2024/03/28 06:21:04;;;;;;;3.92;3.08;;;;;;;;;;4997341;28;20041;-72
2024/03/28 06:23:30;;;;;;;5.32;2.63;;;;;;;;;;4996124;28;20026;-71
2024/03/28 06:25:56;;;;;;;6.43;3.15;;;;;;;;;;4997553;28;20437;-71
2024/03/28 06:28:26;;;;;;;6.68;3.05;;;;;;;;;;4997555;28;20084;-72
2024/03/28 06:30:56;;;;;;;5.20;2.50;;;;;;;;;;5000412;28;20023;-72
2024/03/28 06:33:22;;;;;;;7.57;2.78;;;;;;;;;;4997248;28;20034;-73
2024/03/28 06:35:49;;;;;;;12.27;3.00;;;;;;;;;;4997794;28;20034;-72
2024/03/28 06:38:15;;;;;;;4.20;2.30;;;;;;;;;;4997159;28;20034;-73
2024/03/28 06:40:41;;;;;;;3.88;2.70;;;;;;;;;;4998531;28;20455;-72
2024/03/28 06:43:07;;;;;;;4.50;2.65;;;;;;;;;;4998141;28;20025;-73
2024/03/28 06:45:33;;;;;;;3.92;2.28;;;;;;;;;;4996497;28;20046;-72
2024/03/28 06:47:59;;;;;;;7.32;2.45;;;;;;;;;;4995464;28;20108;-72
2024/03/28 06:50:25;;;;;;;5.18;2.50;;;;;;;;;;4997177;28;20385;-71
2024/03/28 06:52:52;;;;;;;3.05;2.33;;;;;;;;;;4996536;28;20018;-72
2024/03/28 06:55:18;;;;;;;3.45;2.78;;;;;;;;;;4995395;28;20461;-72
2024/03/28 06:57:44;;;;;;;2.40;1.70;;;;;;;;;;4996304;28;20412;-72
2024/03/28 07:00:11;;;;;;;5.90;2.15;;;;;;;;;;4997473;28;20105;-73
2024/03/28 07:02:38;;;;;;;4.75;2.22;;;;;;;;;;4996561;28;20034;-72
2024/03/28 07:05:04;;;;;;;4.22;1.90;;;;;;;;;;4995364;28;20033;-72
2024/03/28 07:07:30;;;;;;;5.28;2.28;;;;;;;;;;4997600;28;20062;-72
2024/03/28 07:09:57;;;;;;;4.60;2.05;;;;;;;;;;4997960;28;20058;-72
2024/03/28 07:12:23;;;;;;;4.10;2.38;;;;;;;;;;4996380;28;20073;-72
2024/03/28 07:14:49;;;;;;;9.90;2.40;;;;;;;;;;4995314;28;20189;-71
2024/03/28 07:17:15;;;;;;;5.20;2.20;;;;;;;;;;4996816;28;20045;-72
2024/03/28 07:19:41;;;;;;;4.97;2.38;;;;;;;;;;4996736;28;20022;-73
2024/03/28 07:22:10;;;;;;;6.20;2.53;;;;;;;;;;4996465;28;20413;-72
2024/03/28 07:24:36;;;;;;;5.53;2.17;;;;;;;;;;4996606;28;20378;-72
2024/03/28 07:27:03;;;;;;;2.50;1.80;;;;;;;;;;4996660;28;20034;-72
2024/03/28 07:29:29;;;;;;;3.05;2.45;;;;;;;;;;4996019;28;20453;-72
2024/03/28 07:31:55;;;;;;;6.43;2.15;;;;;;;;;;4996123;28;20392;-72
2024/03/28 07:34:21;;;;;;;2.65;2.28;;;;;;;;;;4996854;28;20032;-72
2024/03/28 07:36:47;;;;;;;6.20;1.90;;;;;;;;;;4996165;28;20027;-72
2024/03/28 07:39:14;;;;;;;4.35;1.90;;;;;;;;;;4997360;28;20057;-72
2024/03/28 07:41:41;;;;;;;4.35;1.65;;;;;;;;;;4998488;28;20026;-73
2024/03/28 07:44:07;;;;;;;4.32;1.73;;;;;;;;;;4996848;28;20100;-72
2024/03/28 07:46:33;;;;;;;3.50;1.95;;;;;;;;;;4996419;28;20045;-73
2024/03/28 07:48:59;;;;;;;6.57;2.10;;;;;;;;;;4997740;28;20475;-72
2024/03/28 07:51:25;;;;;;;2.20;1.75;;;;;;;;;;4997082;28;20030;-72
2024/03/28 07:53:52;;;;;;;5.65;1.60;;;;;;;;;;4996073;28;20076;-72
2024/03/28 07:56:19;;;;;;;2.80;1.92;;;;;;;;;;4996455;28;20381;-73
2024/03/28 07:58:45;;;;;;;3.55;1.70;;;;;;;;;;4995929;28;20058;-72
2024/03/28 08:01:11;;;;;;;3.60;1.98;;;;;;;;;;5002364;28;20026;-73
2024/03/28 08:03:37;;;;;;;5.55;1.58;;;;;;;;;;5007422;28;20050;-72
2024/03/28 08:06:04;;;;;;;2.90;1.48;;;;;;;;;;5016907;28;20026;-71
2024/03/28 08:08:30;;;;;;;4.07;1.95;;;;;;;;;;5018520;28;20444;-72
2024/03/28 08:10:56;;;;;;;3.40;2.00;;;;;;;;;;5016892;28;20021;-72
2024/03/28 08:13:23;;;;;;;3.75;1.88;;;;;;;;;;5017120;28;20026;-72
2024/03/28 08:15:49;;;;;;;4.03;1.98;;;;;;;;;;5014875;28;20107;-73
2024/03/28 08:18:16;;;;;;;5.97;1.60;;;;;;;;;;4998984;28;20030;-74
2024/03/28 08:20:43;;;;;;;3.25;1.73;;;;;;;;;;4994895;28;20064;-73
2024/03/28 08:23:09;;;;;;;3.60;1.88;;;;;;;;;;4993747;28;20084;-71
2024/03/28 08:25:35;;;;;;;2.42;1.85;;;;;;;;;;4996196;28;20081;-71
2024/03/28 08:28:01;;;;;;;3.03;1.75;;;;;;;;;;4996111;28;20045;-72
2024/03/28 08:30:27;;;;;;;6.80;1.40;;;;;;;;;;4996052;28;20034;-72
2024/03/28 08:32:55;;;;;;;3.60;1.48;;;;;;;;;;4997233;28;20034;-72
2024/03/28 08:35:21;;;;;;;2.40;1.73;;;;;;;;;;4996142;28;20030;-73
2024/03/28 08:37:47;;;;;;;3.03;1.67;;;;;;;;;;5005551;28;20079;-71
2024/03/28 08:40:13;;;;;;;5.45;1.92;;;;;;;;;;4996518;28;20441;-72
2024/03/28 08:42:40;;;;;;;3.45;2.10;;;;;;;;;;5003734;28;20532;-74
2024/03/28 08:45:18;;;;;;;3.42;1.77;;;;;;;;;;5004185;28;20049;-73
2024/03/28 08:47:45;;;;;;;3.72;1.58;;;;;;;;;;5000555;28;20378;-73
2024/03/28 08:50:13;;;;;;;2.28;1.45;;;;;;;;;;5004059;28;20311;-72
2024/03/28 08:52:39;;;;;;;7.25;2.35;;;;;;;;;;5006858;28;20025;-72
2024/03/28 08:55:10;;;;;;;2.80;1.45;;;;;;;;;;5007152;28;20026;-74
2024/03/28 08:57:37;;;;;;;4.00;1.47;;;;;;;;;;5004226;28;20373;-73
2024/03/28 09:00:10;;;;;;;4.47;1.60;;;;;;;;;;5006526;28;20340;-73
2024/03/28 09:02:36;;;;;;;2.55;1.80;;;;;;;;;;5000081;28;20116;-71
2024/03/28 09:05:03;;;;;;;4.38;1.67;;;;;;;;;;4999547;28;20030;-71
2024/03/28 09:07:29;;;;;;;1.75;1.50;;;;;;;;;;5005137;28;20065;-72
2024/03/28 09:09:55;;;;;;;3.80;1.70;;;;;;;;;;5005031;28;20026;-72
2024/03/28 09:12:21;;;;;;;2.58;1.58;;;;;;;;;;4997879;28;20045;-72
2024/03/28 09:14:47;;;;;;;10.70;1.67;;;;;;;;;;5012804;28;20431;-71
2024/03/28 09:17:14;;;;;;;2.45;1.50;;;;;;;;;;5007234;28;20076;-71
2024/03/28 09:19:40;;;;;;;3.30;1.17;;;;;;;;;;5004264;28;20022;-72
2024/03/28 09:22:06;;;;;;;1.70;1.38;;;;;;;;;;5003778;28;20055;-72
2024/03/28 09:24:32;;;;;;;3.22;1.70;;;;;;;;;;5002560;28;20085;-71
2024/03/28 09:26:58;;;;;;;1.67;1.13;;;;;;;;;;5006089;28;20105;-72
2024/03/28 09:29:24;;;;;;;3.83;1.58;;;;;;;;;;5006023;28;20096;-73
2024/03/28 09:31:53;;;;;;;3.30;1.60;;;;;;;;;;5003551;28;20014;-73
2024/03/28 09:34:19;;;;;;;6.13;1.70;;;;;;;;;;5004631;28;20046;-72
2024/03/28 09:36:45;;;;;;;2.05;1.20;;;;;;;;;;5004006;28;20115;-72
2024/03/28 09:39:12;;;;;;;3.25;1.60;;;;;;;;;;5003023;28;20457;-72
2024/03/28 09:41:39;;;;;;;4.13;1.65;;;;;;;;;;5005472;28;20018;-72
2024/03/28 09:44:10;;;;;;;1.73;1.30;;;;;;;;;;5004579;28;20025;-73
2024/03/28 09:46:41;;;;;;;17.40;2.05;;;;;;;;;;5008829;28;20025;-73
2024/03/28 09:49:08;;;;;;;1.73;1.40;;;;;;;;;;5004599;28;20077;-72
2024/03/28 09:51:35;;;;;;;3.55;1.52;;;;;;;;;;5006105;28;20034;-73
2024/03/28 09:54:05;;;;;;;1.92;1.50;;;;;;;;;;4999356;28;20023;-72
2024/03/28 09:56:31;;;;;;;3.55;1.95;;;;;;;;;;5014226;28;20131;-71
2024/03/28 09:58:57;;;;;;;3.90;1.95;;;;;;;;;;5011775;28;20184;-73
2024/03/28 10:01:24;;;;;;;4.85;1.58;;;;;;;;;;5012170;28;20026;-73
2024/03/28 10:03:52;;;;;;;3.58;1.58;;;;;;;;;;5016556;28;20026;-72
2024/03/28 10:06:20;;;;;;;3.17;1.55;;;;;;;;;;5015330;28;20028;-72
2024/03/28 10:08:46;;;;;;;2.97;1.95;;;;;;;;;;5001246;28;20476;-72
2024/03/28 10:11:12;;;;;;;2.00;1.80;;;;;;;;;;5010719;28;20030;-72
2024/03/28 10:13:39;;;;;;;2.60;1.63;;;;;;;;;;5012173;28;20041;-72
2024/03/28 10:16:06;;;;;;;3.20;1.40;;;;;;;;;;5014293;28;20022;-72
2024/03/28 10:18:33;;;;;;;3.10;1.98;;;;;;;;;;5000720;28;20040;-72
2024/03/28 10:20:59;;;;;;;2.83;1.30;;;;;;;;;;5011266;28;20022;-71
2024/03/28 10:23:26;;;;;;;3.75;1.40;;;;;;;;;;5004455;28;20048;-71
2024/03/28 10:25:52;;;;;;;2.67;1.70;;;;;;;;;;5011700;28;20052;-73
2024/03/28 10:28:22;;;;;;;3.90;2.00;;;;;;;;;;5017248;28;20021;-71
2024/03/28 10:30:52;;;;;;;3.65;1.75;;;;;;;;;;5015261;28;20033;-72
2024/03/28 10:33:19;;;;;;;1.95;1.58;;;;;;;;;;5017224;28;20076;-73
2024/03/28 10:35:55;;;;;;;3.72;2.05;;;;;;;;;;5015817;28;20107;-72
2024/03/28 10:38:21;;;;;;;3.95;1.90;;;;;;;;;;5003816;28;20030;-72
2024/03/28 10:40:49;;;;;;;2.22;1.42;;;;;;;;;;5007317;28;20025;-73
2024/03/28 10:43:16;;;;;;;3.22;1.38;;;;;;;;;;5002639;28;20026;-71
2024/03/28 10:45:44;;;;;;;2.35;1.67;;;;;;;;;;5013862;28;20045;-72
2024/03/28 10:48:16;;;;;;;2.20;1.58;;;;;;;;;;5011265;28;20030;-73
2024/03/28 10:50:45;;;;;;;3.70;1.42;;;;;;;;;;5004803;28;20500;-71
2024/03/28 10:53:22;;;;;;;2.17;1.08;;;;;;;;;;5000310;28;20030;-72
2024/03/28 10:55:50;;;;;;;1.08;0.90;;;;;;;;;;5014198;28;20068;-72
2024/03/28 10:58:17;;;;;;;2.40;1.35;;;;;;;;;;5009058;28;20031;-71
2024/03/28 11:00:43;;;;;;;1.10;0.90;;;;;;;;;;5004563;28;20034;-72
2024/03/28 11:03:11;;;;;;;1.23;0.75;;;;;;;;;;5002386;28;20036;-73
2024/03/28 11:05:37;;;;;;;2.55;1.13;;;;;;;;;;5011167;28;20034;-72
2024/03/28 11:08:05;;;;;;;1.65;1.17;;;;;;;;;;5001603;28;20010;-72
2024/03/28 11:10:31;;;;;;;2.60;1.08;;;;;;;;;;5011227;28;20019;-73
2024/03/28 11:12:57;;;;;;;1.15;0.60;;;;;;;;;;4999498;28;20026;-73
2024/03/28 11:15:23;;;;;;;0.75;0.60;;;;;;;;;;5010458;28;20022;-72
2024/03/28 11:17:49;;;;;;;1.85;0.70;;;;;;;;;;4998600;28;20038;-72
2024/03/28 11:20:17;;;;;;;0.80;0.60;;;;;;;;;;5014750;28;20048;-72
2024/03/28 11:22:43;;;;;;;0.77;0.45;;;;;;;;;;5015752;28;20084;-72
2024/03/28 11:25:29;;;;;;;0.88;0.40;;;;;;;;;;5016192;28;20022;-72
2024/03/28 11:28:10;;;;;;;1.48;0.40;;;;;;;;;;5016537;28;20030;-71
2024/03/28 11:30:40;;;;;;;0.30;0.20;;;;;;;;;;5017392;28;20034;-72
2024/03/28 11:33:13;;;;;;;1.42;0.30;;;;;;;;;;5017194;28;20421;-72
2024/03/28 11:35:41;;;;;;;8.57;0.40;;;;;;;;;;5016989;28;20221;-72
2024/03/28 11:38:11;;;;;;;2.33;0.30;;;;;;;;;;5018273;28;20022;-72
2024/03/28 11:40:37;;;;;;;3.15;0.75;;;;;;;;;;5016101;28;20033;-72
2024/03/28 11:43:10;;;;;;;1.45;0.40;;;;;;;;;;5018078;28;20037;-73
2024/03/28 11:45:36;;;;;;;1.85;0.17;;;;;;;;;;5016493;28;20034;-72
2024/03/28 11:48:02;;;;;;;0.22;0.10;;;;;;;;;;5016840;28;20037;-72
2024/03/28 11:50:29;;;;;;;2.65;0.20;;;;;;;;;;5018236;28;20164;-72
2024/03/28 11:53:03;;;;;;;4.05;0.20;;;;;;;;;;5018137;28;20033;-72
2024/03/28 11:55:35;;;;;;;0.80;0.30;;;;;;;;;;5016626;28;20030;-73
2024/03/28 11:58:05;;;;;;;2.08;0.40;;;;;;;;;;5017535;28;20022;-71
2024/03/28 12:00:31;;;;;;;0.50;0.10;;;;;;;;;;5017516;28;20022;-72
2024/03/28 12:02:58;;;;;;;0.95;0.28;;;;;;;;;;5014171;28;20022;-72
2024/03/28 12:05:24;;;;;;;1.65;0.30;;;;;;;;;;5016678;28;20054;-73
2024/03/28 12:08:44;;;;;;;2.10;0.20;;;;;;;;;;5014833;28;20022;-72
2024/03/28 12:11:02;;;;;;;0.88;0.30;;;;;;;;;;5014370;28;20392;-73
2024/03/28 12:13:28;;;;;;;1.52;0.32;;;;;;;;;;5016780;28;20030;-72
2024/03/28 12:15:58;;;;;;;0.30;0.10;;;;;;;;;;5018171;28;20113;-71
2024/03/28 12:21:36;;;;;;;0.60;0.20;;;;;;;;;;5006495;28;20025;-72
2024/03/28 12:24:02;;;;;;;1.70;0.28;;;;;;;;;;5017659;28;20036;-73
2024/03/28 12:26:31;;;;;;;0.10;0.10;;;;;;;;;;5019335;28;20365;-73
2024/03/28 12:29:00;;;;;;;0.52;0.20;;;;;;;;;;5019720;28;20037;-73
2024/03/28 12:31:57;;;;;;;1.38;0.10;;;;;;;;;;5019050;28;20053;-73
2024/03/28 12:34:56;;;;;;;0.45;0.15;;;;;;;;;;5019603;28;20073;-73
2024/03/28 12:37:22;;;;;;;0.08;0.00;;;;;;;;;;5019488;28;20496;-73
2024/03/28 12:39:49;;;;;;;1.73;0.30;;;;;;;;;;5017813;28;20026;-73
2024/03/28 12:42:22;;;;;;;2.55;0.30;;;;;;;;;;5017252;28;20029;-72
2024/03/28 12:44:48;;;;;;;0.65;0.28;;;;;;;;;;5015957;28;20076;-71
2024/03/28 12:47:22;;;;;;;3.65;0.70;;;;;;;;;;5018438;28;20392;-75
2024/03/28 12:49:48;;;;;;;0.30;0.10;;;;;;;;;;5016505;28;20102;-73
2024/03/28 12:52:21;;;;;;;2.88;0.20;;;;;;;;;;5017835;28;20018;-73
2024/03/28 12:54:48;;;;;;;0.77;0.20;;;;;;;;;;5024855;28;20033;-74
2024/03/28 12:57:21;;;;;;;0.73;0.20;;;;;;;;;;5024142;28;20082;-75
2024/03/28 12:59:59;;;;;;;0.45;0.10;;;;;;;;;;5021925;28;20029;-73
2024/03/28 13:02:26;;;;;;;1.75;0.03;;;;;;;;;;5017463;28;20057;-73
2024/03/28 13:04:52;;;;;;;1.23;0.15;;;;;;;;;;5016093;28;20026;-74
2024/03/28 13:07:18;;;;;;;1.25;0.20;;;;;;;;;;5015315;28;20026;-74
2024/03/28 13:09:52;;;;;;;2.05;0.38;;;;;;;;;;5018016;28;20026;-74
2024/03/28 13:12:25;;;;;;;2.10;0.68;;;;;;;;;;5017361;28;20081;-72
2024/03/28 13:14:51;;;;;;;3.92;1.20;;;;;;;;;;5020070;28;20033;-73
2024/03/28 13:17:18;;;;;;;2.30;0.40;;;;;;;;;;5017684;28;20026;-75
2024/03/28 13:19:45;;;;;;;1.48;0.30;;;;;;;;;;5016918;28;20092;-75
2024/03/28 13:22:11;;;;;;;2.42;0.55;;;;;;;;;;5016699;28;20033;-75
2024/03/28 13:24:37;;;;;;;7.57;0.40;;;;;;;;;;5018885;28;20022;-74
2024/03/28 13:27:04;;;;;;;2.53;0.13;;;;;;;;;;5019079;28;20053;-74
2024/03/28 13:29:32;;;;;;;2.83;0.32;;;;;;;;;;5019388;28;20021;-74
2024/03/28 13:31:59;;;;;;;0.82;0.25;;;;;;;;;;5018651;28;20420;-73
2024/03/28 13:34:25;;;;;;;2.38;0.28;;;;;;;;;;5018430;28;20014;-72
2024/03/28 13:36:53;;;;;;;2.53;0.60;;;;;;;;;;5017869;28;20099;-73
2024/03/28 13:39:20;;;;;;;1.00;0.17;;;;;;;;;;5017080;28;20550;-74
2024/03/28 13:41:46;;;;;;;2.10;0.35;;;;;;;;;;5016702;28;20034;-74
2024/03/28 13:44:15;;;;;;;1.58;0.40;;;;;;;;;;5019170;28;20057;-77
2024/03/28 13:46:42;;;;;;;2.75;0.28;;;;;;;;;;5019952;28;20033;-76
2024/03/28 13:49:21;;;;;;;1.48;0.75;;;;;;;;;;5021481;28;20022;-76
2024/03/28 13:51:48;;;;;;;6.68;0.40;;;;;;;;;;5020168;28;20032;-76
2024/03/28 13:54:14;;;;;;;3.72;0.65;;;;;;;;;;5020120;28;20032;-74
2024/03/28 13:56:40;;;;;;;1.30;0.45;;;;;;;;;;5019605;28;20029;-74
2024/03/28 13:59:06;;;;;;;0.60;0.28;;;;;;;;;;5020943;28;20026;-73
2024/03/28 14:01:33;;;;;;;2.88;0.30;;;;;;;;;;5020818;28;20041;-74
2024/03/28 14:03:59;;;;;;;1.77;0.52;;;;;;;;;;5021817;28;20423;-72
2024/03/28 14:06:25;;;;;;;0.35;0.10;;;;;;;;;;5019902;28;20029;-74
2024/03/28 14:08:51;;;;;;;0.75;0.20;;;;;;;;;;5019848;28;20026;-73
2024/03/28 14:11:18;;;;;;;1.05;0.30;;;;;;;;;;5017863;28;20029;-73
2024/03/28 14:13:44;;;;;;;3.33;0.40;;;;;;;;;;5018093;28;20439;-74
2024/03/28 14:16:10;;;;;;;2.15;0.30;;;;;;;;;;5016515;28;20385;-73
2024/03/28 14:18:36;;;;;;;5.32;0.20;;;;;;;;;;5018434;28;20026;-74
2024/03/28 14:21:03;;;;;;;0.77;0.20;;;;;;;;;;5017904;28;20036;-73
2024/03/28 14:23:29;;;;;;;0.45;0.20;;;;;;;;;;5018306;28;20030;-73
2024/03/28 14:25:59;;;;;;;2.42;0.20;;;;;;;;;;5015754;28;20396;-73
2024/03/28 14:28:25;;;;;;;1.15;0.10;;;;;;;;;;5016349;28;20049;-73
2024/03/28 14:30:51;;;;;;;1.83;0.20;;;;;;;;;;5018439;28;20025;-73
2024/03/28 14:33:17;;;;;;;0.65;0.20;;;;;;;;;;5016731;28;20102;-73
2024/03/28 14:35:43;;;;;;;3.35;0.20;;;;;;;;;;5015942;28;20030;-73
2024/03/28 14:38:09;;;;;;;1.92;0.30;;;;;;;;;;5018299;28;20059;-74
2024/03/28 14:40:39;;;;;;;2.38;0.30;;;;;;;;;;5015839;28;20018;-74
2024/03/28 14:43:05;;;;;;;0.47;0.10;;;;;;;;;;5016411;28;20101;-73
2024/03/28 14:45:31;;;;;;;0.93;0.30;;;;;;;;;;5017277;28;20101;-74
2024/03/28 14:47:57;;;;;;;1.75;0.52;;;;;;;;;;5016953;28;20384;-73
2024/03/28 14:50:26;;;;;;;3.28;0.20;;;;;;;;;;5016528;28;20026;-72
2024/03/28 14:52:52;;;;;;;0.95;0.17;;;;;;;;;;5015786;28;20104;-72